Time;durP1;ratioP1;P1;durP2;ratioP2;P2;SDS_P1;SDS_P2;PMS_P1;PMS_P2;Temp;Humidity;BMP_temperature;BMP_pressure;BME280_temperature;BME280_humidity;BME280_pressure;Samples;Min_cycle;Max_cycle;Signal;HPM_P1;HPM_P2
2021/06/24 00:28:39;;;;;;;10.38;4.03;;;11.40;99.90;;;;;;5111873;28;20386;-81
2021/06/24 00:31:06;;;;;;;7.35;4.28;;;11.40;99.90;;;;;;5111825;28;20501;-81
2021/06/24 00:33:31;;;;;;;7.28;4.70;;;11.40;99.90;;;;;;5110808;28;20119;-81
2021/06/24 00:35:57;;;;;;;7.13;3.92;;;11.40;99.90;;;;;;5109096;28;20031;-82
2021/06/24 00:38:23;;;;;;;7.55;4.28;;;11.40;99.90;;;;;;5111893;27;20138;-81
2021/06/24 00:40:49;;;;;;;6.28;3.83;;;11.40;99.90;;;;;;5107864;28;20038;-82
2021/06/24 00:43:18;;;;;;;7.75;3.92;;;11.40;99.90;;;;;;5115439;28;20040;-81
2021/06/24 00:45:45;;;;;;;4.25;3.30;;;11.40;99.90;;;;;;5109044;28;20037;-81
2021/06/24 00:48:10;;;;;;;8.95;3.75;;;11.40;99.90;;;;;;5109309;28;20024;-81
2021/06/24 00:50:39;;;;;;;5.35;2.80;;;11.40;99.90;;;;;;5109301;28;20043;-81
2021/06/24 00:53:06;;;;;;;4.70;3.20;;;11.30;99.90;;;;;;5103878;28;20039;-81
2021/06/24 00:55:43;;;;;;;4.38;2.38;;;11.30;99.90;;;;;;5106216;28;20278;-81
2021/06/24 00:58:13;;;;;;;3.42;3.00;;;11.30;99.90;;;;;;5108461;28;20463;-81
2021/06/24 01:00:41;;;;;;;5.10;4.07;;;11.30;99.90;;;;;;5110606;28;20050;-81
2021/06/24 01:03:06;;;;;;;7.13;3.67;;;11.30;99.90;;;;;;5110112;28;20459;-81
2021/06/24 01:05:34;;;;;;;4.32;3.13;;;11.30;99.90;;;;;;5106930;27;20039;-81
2021/06/24 01:08:00;;;;;;;4.97;2.92;;;11.20;99.90;;;;;;5110676;28;20036;-81
2021/06/24 01:10:26;;;;;;;5.13;2.72;;;11.10;99.90;;;;;;5109298;28;20118;-81
2021/06/24 01:12:52;;;;;;;8.50;3.97;;;11.00;99.90;;;;;;5109344;28;20035;-81
2021/06/24 01:15:18;;;;;;;5.65;4.40;;;11.00;99.90;;;;;;5112066;28;20042;-81
2021/06/24 01:17:44;;;;;;;7.13;3.97;;;10.90;99.90;;;;;;5110270;28;20043;-81
2021/06/24 01:20:10;;;;;;;5.63;4.05;;;10.90;99.90;;;;;;5111993;28;20434;-81
2021/06/24 01:22:36;;;;;;;4.68;4.03;;;10.90;99.90;;;;;;5107110;28;20111;-81
2021/06/24 01:25:02;;;;;;;6.20;4.03;;;10.90;99.90;;;;;;5110948;28;20093;-81
2021/06/24 01:27:28;;;;;;;9.63;4.78;;;11.00;99.90;;;;;;5109258;28;20036;-81
2021/06/24 01:29:53;;;;;;;4.72;3.58;;;11.00;99.90;;;;;;5112666;28;20116;-81
2021/06/24 01:32:21;;;;;;;6.95;3.85;;;10.90;99.90;;;;;;5111621;28;20043;-81
2021/06/24 01:34:47;;;;;;;7.25;4.05;;;10.90;99.90;;;;;;5113171;28;20055;-82
2021/06/24 01:37:12;;;;;;;7.60;4.53;;;10.90;99.90;;;;;;5109320;28;20552;-81
2021/06/24 01:39:38;;;;;;;5.90;3.55;;;10.90;99.90;;;;;;5109794;28;20040;-81
2021/06/24 01:42:04;;;;;;;5.30;3.42;;;10.80;99.90;;;;;;5107113;28;20066;-81
2021/06/24 01:44:36;;;;;;;4.07;2.83;;;10.80;99.90;;;;;;5107673;28;20787;-81
2021/06/24 01:47:03;;;;;;;5.35;3.67;;;10.70;99.90;;;;;;5111523;28;20150;-81
2021/06/24 01:49:30;;;;;;;3.63;3.33;;;10.70;99.90;;;;;;5109498;28;20040;-81
2021/06/24 01:51:57;;;;;;;2.95;2.70;;;10.70;99.90;;;;;;5110204;28;20024;-82
2021/06/24 01:54:23;;;;;;;4.15;3.55;;;10.70;99.90;;;;;;5108937;28;20032;-81
2021/06/24 01:56:49;;;;;;;3.70;2.92;;;10.70;99.90;;;;;;5109826;28;20503;-81
2021/06/24 01:59:15;;;;;;;5.22;3.42;;;10.70;99.90;;;;;;5109166;28;20031;-81
2021/06/24 02:01:42;;;;;;;5.45;3.45;;;10.70;99.90;;;;;;5110466;28;20786;-82
2021/06/24 02:04:07;;;;;;;5.55;3.53;;;10.70;99.90;;;;;;5105324;28;20039;-82
2021/06/24 02:06:33;;;;;;;5.90;4.20;;;10.70;99.90;;;;;;5105328;28;20417;-82
2021/06/24 02:09:00;;;;;;;7.00;4.63;;;10.70;99.90;;;;;;5106586;28;20511;-82
2021/06/24 02:11:25;;;;;;;5.10;3.88;;;10.70;99.90;;;;;;5109206;28;20087;-81
2021/06/24 02:13:51;;;;;;;7.85;4.30;;;10.70;99.90;;;;;;5123124;27;20059;-82
2021/06/24 02:16:17;;;;;;;5.07;3.47;;;10.80;99.90;;;;;;5107094;28;20112;-82
2021/06/24 02:18:42;;;;;;;6.63;3.50;;;10.80;99.90;;;;;;5104344;28;20036;-82
2021/06/24 02:21:08;;;;;;;5.82;3.47;;;10.70;99.90;;;;;;5109630;27;20051;-82
2021/06/24 02:23:34;;;;;;;3.97;3.55;;;10.80;99.90;;;;;;5108264;28;20042;-82
2021/06/24 02:26:00;;;;;;;3.63;3.33;;;10.80;99.90;;;;;;5112569;28;20414;-81
2021/06/24 02:28:25;;;;;;;4.88;3.40;;;10.80;99.90;;;;;;5107734;28;20042;-82
2021/06/24 02:30:51;;;;;;;4.90;3.75;;;10.80;99.90;;;;;;5113915;28;21333;-82
2021/06/24 02:33:18;;;;;;;5.63;4.07;;;10.90;99.90;;;;;;5111943;28;20043;-81
2021/06/24 02:35:54;;;;;;;5.32;4.45;;;10.80;99.90;;;;;;5111448;28;20429;-81
2021/06/24 02:38:20;;;;;;;4.65;3.65;;;10.80;99.90;;;;;;5107119;28;20051;-81
2021/06/24 02:40:45;;;;;;;5.10;4.60;;;10.80;99.90;;;;;;5105665;28;20042;-82
2021/06/24 02:43:11;;;;;;;5.47;4.85;;;10.70;99.90;;;;;;5125050;27;20028;-81
2021/06/24 02:45:37;;;;;;;8.65;5.80;;;10.80;99.90;;;;;;5112756;28;20028;-81
2021/06/24 02:48:03;;;;;;;6.45;5.78;;;10.60;99.90;;;;;;5110891;28;20088;-81
2021/06/24 02:50:29;;;;;;;8.88;6.15;;;10.60;99.90;;;;;;5109138;28;20040;-81
2021/06/24 02:52:54;;;;;;;6.53;5.60;;;10.70;99.90;;;;;;5111299;28;20043;-81
2021/06/24 02:55:20;;;;;;;7.20;6.47;;;10.70;99.90;;;;;;5109257;28;20036;-81
2021/06/24 02:57:46;;;;;;;7.15;5.53;;;10.80;99.90;;;;;;5108780;28;20047;-81
2021/06/24 03:00:13;;;;;;;7.15;6.18;;;10.80;99.90;;;;;;5124083;27;20059;-81
2021/06/24 03:02:39;;;;;;;8.32;6.03;;;10.80;99.90;;;;;;5110317;28;20042;-81
2021/06/24 03:05:06;;;;;;;7.50;5.38;;;10.80;99.90;;;;;;5105074;28;20118;-81
2021/06/24 03:07:32;;;;;;;9.07;7.03;;;10.90;99.90;;;;;;5108157;28;20044;-81
2021/06/24 03:09:58;;;;;;;8.18;6.13;;;10.90;99.90;;;;;;5107304;28;20111;-81
2021/06/24 03:12:23;;;;;;;6.97;6.18;;;10.90;99.90;;;;;;5107687;28;20056;-81
2021/06/24 03:14:49;;;;;;;6.47;5.63;;;11.00;99.90;;;;;;5110014;28;20042;-81
2021/06/24 03:17:15;;;;;;;7.53;6.03;;;11.30;99.90;;;;;;5104834;28;20755;-81
2021/06/24 03:19:40;;;;;;;7.30;6.05;;;11.00;99.90;;;;;;5113159;28;20042;-81
2021/06/24 03:22:06;;;;;;;9.75;6.47;;;11.00;99.90;;;;;;5112146;28;20032;-81
2021/06/24 03:24:32;;;;;;;7.35;5.45;;;11.00;99.90;;;;;;5111830;28;20044;-81
2021/06/24 03:26:57;;;;;;;7.22;6.20;;;11.10;99.90;;;;;;5113715;28;20114;-81
2021/06/24 03:29:23;;;;;;;8.40;5.75;;;11.10;99.90;;;;;;5113491;28;20100;-82
2021/06/24 03:31:49;;;;;;;7.50;5.55;;;11.40;99.90;;;;;;5113741;28;20044;-81
2021/06/24 03:34:15;;;;;;;6.70;6.15;;;11.10;99.90;;;;;;5111042;28;20573;-81
2021/06/24 03:36:44;;;;;;;6.65;5.70;;;11.10;99.90;;;;;;5111682;28;20075;-81
2021/06/24 03:39:10;;;;;;;6.75;6.05;;;11.10;99.90;;;;;;5110802;28;20042;-81
2021/06/24 03:41:35;;;;;;;5.25;4.93;;;11.10;99.90;;;;;;5108547;28;20146;-81
2021/06/24 03:44:02;;;;;;;5.65;5.15;;;11.10;99.90;;;;;;5111008;28;20036;-81
2021/06/24 03:46:28;;;;;;;5.60;5.10;;;11.10;99.90;;;;;;5107523;27;20039;-82
2021/06/24 03:48:55;;;;;;;5.55;4.80;;;11.10;99.90;;;;;;5103493;28;20122;-81
2021/06/24 03:51:21;;;;;;;7.97;6.15;;;11.20;99.90;;;;;;5107333;28;20040;-82
2021/06/24 03:53:47;;;;;;;6.32;5.72;;;11.20;99.90;;;;;;5108396;28;20036;-82
2021/06/24 03:56:13;;;;;;;11.50;6.10;;;11.20;99.90;;;;;;5117244;27;20978;-82
2021/06/24 03:58:38;;;;;;;6.75;5.40;;;11.20;99.90;;;;;;5106977;28;20035;-81
2021/06/24 04:01:05;;;;;;;6.07;5.53;;;11.20;99.90;;;;;;5103557;28;20070;-81
2021/06/24 04:03:30;;;;;;;6.93;5.90;;;11.30;99.90;;;;;;5104728;28;20088;-82
2021/06/24 04:05:56;;;;;;;9.50;6.25;;;11.30;99.90;;;;;;5103651;28;20032;-81
2021/06/24 04:08:22;;;;;;;6.45;5.80;;;11.30;99.90;;;;;;5103874;28;20093;-81
2021/06/24 04:10:48;;;;;;;8.02;6.75;;;11.40;99.90;;;;;;5104435;28;20035;-82
2021/06/24 04:13:13;;;;;;;10.55;6.55;;;11.50;99.90;;;;;;5106965;28;20032;-81
2021/06/24 04:15:39;;;;;;;9.45;6.68;;;11.60;99.90;;;;;;5106299;28;20043;-82
2021/06/24 04:18:07;;;;;;;10.23;5.60;;;11.70;99.90;;;;;;5109186;28;20063;-82
2021/06/24 04:20:34;;;;;;;6.75;5.82;;;11.90;99.90;;;;;;5103884;28;20043;-81
2021/06/24 04:23:01;;;;;;;11.15;7.07;;;11.90;99.90;;;;;;5106111;28;20040;-82
2021/06/24 04:25:27;;;;;;;8.57;6.28;;;11.90;99.90;;;;;;5122157;27;20039;-82
2021/06/24 04:27:53;;;;;;;7.78;5.57;;;12.00;99.90;;;;;;5106537;27;20045;-82
2021/06/24 04:30:44;;;;;;;8.00;6.07;;;12.70;99.90;;;;;;5105721;28;20122;-82
2021/06/24 04:33:10;;;;;;;9.93;6.45;;;12.20;99.90;;;;;;5089746;28;20078;-82
2021/06/24 04:35:36;;;;;;;10.93;5.60;;;12.20;99.90;;;;;;5106139;28;20040;-82
2021/06/24 04:38:03;;;;;;;7.03;5.85;;;12.30;99.90;;;;;;5088819;28;20074;-81
2021/06/24 04:40:29;;;;;;;8.43;6.22;;;12.60;99.90;;;;;;5111821;28;20032;-82
2021/06/24 04:42:54;;;;;;;7.95;5.95;;;12.50;99.90;;;;;;5108465;28;20118;-83
2021/06/24 04:45:20;;;;;;;9.43;6.03;;;12.70;99.90;;;;;;5104914;28;20098;-82
2021/06/24 04:47:48;;;;;;;7.82;5.93;;;13.00;99.90;;;;;;5124156;27;20039;-82
2021/06/24 04:50:15;;;;;;;6.57;5.43;;;13.50;99.90;;;;;;5108129;28;20071;-82
2021/06/24 04:52:41;;;;;;;8.43;4.93;;;14.20;99.90;;;;;;5107614;28;20090;-82
2021/06/24 04:55:08;;;;;;;4.50;3.95;;;15.00;99.90;;;;;;5103209;28;20036;-81
2021/06/24 04:57:35;;;;;;;4.18;3.58;;;16.00;99.90;;;;;;5110575;28;20059;-82
2021/06/24 05:00:03;;;;;;;4.97;3.55;;;17.00;98.90;;;;;;5107079;28;20036;-81
2021/06/24 05:02:29;;;;;;;4.93;3.28;;;17.90;97.20;;;;;;5104414;28;20036;-82
2021/06/24 05:04:56;;;;;;;5.18;3.25;;;18.70;96.00;;;;;;5100211;28;20719;-82
2021/06/24 05:07:22;;;;;;;8.30;3.67;;;19.30;94.50;;;;;;5113962;27;20040;-82
2021/06/24 05:09:48;;;;;;;8.15;3.55;;;19.30;93.60;;;;;;5115942;27;20039;-82
2021/06/24 05:12:13;;;;;;;5.10;3.05;;;19.10;93.60;;;;;;5102543;27;20174;-81
2021/06/24 05:14:41;;;;;;;6.82;3.10;;;18.90;94.10;;;;;;5118621;27;20369;-82
2021/06/24 05:17:11;;;;;;;5.65;2.80;;;18.60;94.70;;;;;;5099419;28;20040;-82
2021/06/24 05:19:37;;;;;;;4.68;2.42;;;18.50;95.50;;;;;;5101707;28;20071;-80
2021/06/24 05:22:04;;;;;;;4.95;2.75;;;18.50;96.10;;;;;;5100076;28;20036;-80
2021/06/24 05:24:33;;;;;;;4.22;3.03;;;18.50;95.90;;;;;;5097177;27;20135;-80
2021/06/24 05:27:03;;;;;;;3.55;2.58;;;18.50;95.90;;;;;;5095145;28;20070;-80
2021/06/24 05:29:29;;;;;;;4.18;2.25;;;18.50;95.90;;;;;;5099577;28;20181;-77
2021/06/24 05:31:55;;;;;;;5.35;2.42;;;18.60;95.70;;;;;;5101934;28;20082;-79
2021/06/24 05:34:20;;;;;;;4.22;2.63;;;18.80;95.20;;;;;;5101218;27;20042;-81
2021/06/24 05:36:46;;;;;;;7.68;2.70;;;18.70;94.70;;;;;;5101693;28;20039;-80
2021/06/24 05:39:12;;;;;;;3.55;2.20;;;18.70;94.20;;;;;;5098227;28;20032;-81
2021/06/24 05:41:38;;;;;;;3.63;2.17;;;18.60;93.90;;;;;;5105658;27;20036;-81
2021/06/24 05:44:04;;;;;;;6.65;2.00;;;18.20;93.90;;;;;;5117010;27;20044;-80
2021/06/24 05:46:30;;;;;;;5.60;2.97;;;18.10;94.20;;;;;;5105764;28;20132;-80
2021/06/24 05:48:56;;;;;;;3.97;2.00;;;18.10;94.50;;;;;;5102678;28;20083;-81
2021/06/24 05:51:23;;;;;;;6.57;2.42;;;17.90;94.40;;;;;;5101806;28;20115;-81
2021/06/24 05:53:49;;;;;;;5.75;2.33;;;17.90;94.60;;;;;;5104180;28;20028;-80
2021/06/24 05:56:15;;;;;;;3.50;2.50;;;17.70;94.20;;;;;;5103704;28;20115;-80
2021/06/24 05:58:41;;;;;;;3.65;2.00;;;18.10;94.60;;;;;;5101522;28;20123;-80
2021/06/24 06:01:07;;;;;;;6.70;2.45;;;17.60;94.60;;;;;;5104740;28;20039;-80
2021/06/24 06:03:35;;;;;;;6.00;2.72;;;17.60;94.70;;;;;;5102729;28;20035;-80
2021/06/24 06:06:01;;;;;;;4.20;2.55;;;17.60;94.80;;;;;;5106664;28;20028;-80
2021/06/24 06:08:27;;;;;;;3.72;2.40;;;17.50;94.80;;;;;;5109468;28;20043;-80
2021/06/24 06:10:53;;;;;;;4.47;2.70;;;17.50;94.80;;;;;;5104312;28;20040;-80
2021/06/24 06:13:19;;;;;;;5.00;2.63;;;17.30;94.50;;;;;;5106767;28;20046;-80
2021/06/24 06:15:50;;;;;;;4.53;3.33;;;17.20;94.70;;;;;;5105399;28;20028;-80
2021/06/24 06:18:20;;;;;;;5.57;2.45;;;17.10;94.80;;;;;;5107700;27;20253;-80
2021/06/24 06:20:48;;;;;;;8.32;3.00;;;17.00;95.00;;;;;;5103073;28;20035;-81
2021/06/24 06:23:14;;;;;;;4.95;2.80;;;17.00;95.50;;;;;;5125600;27;20095;-80
2021/06/24 06:25:41;;;;;;;3.90;2.90;;;16.80;95.70;;;;;;5106213;28;20124;-81
2021/06/24 06:28:07;;;;;;;6.82;2.60;;;16.80;96.30;;;;;;5114413;28;20052;-80
2021/06/24 06:30:34;;;;;;;5.22;2.05;;;16.80;96.10;;;;;;5107103;27;20047;-79
2021/06/24 06:33:01;;;;;;;4.47;2.47;;;17.00;95.50;;;;;;5104708;28;20059;-79
2021/06/24 06:35:35;;;;;;;3.00;2.22;;;17.10;95.50;;;;;;5113982;28;20035;-80
2021/06/24 06:38:04;;;;;;;6.32;2.53;;;17.20;95.40;;;;;;5109677;27;20123;-80
2021/06/24 06:40:31;;;;;;;5.60;2.17;;;17.10;95.50;;;;;;5113014;28;20059;-80
2021/06/24 06:42:58;;;;;;;5.18;2.17;;;17.10;95.30;;;;;;5119101;28;20062;-80
2021/06/24 06:45:27;;;;;;;6.43;2.20;;;17.10;95.10;;;;;;5111445;28;20036;-79
2021/06/24 06:47:53;;;;;;;6.20;2.70;;;16.90;94.70;;;;;;5110555;28;20039;-79
2021/06/24 06:50:19;;;;;;;3.05;2.20;;;16.70;95.00;;;;;;5113648;28;20040;-79
2021/06/24 06:52:45;;;;;;;3.90;2.67;;;16.50;95.60;;;;;;5116085;28;20707;-79
2021/06/24 06:55:12;;;;;;;7.78;2.50;;;16.40;96.00;;;;;;5108397;28;20490;-79
2021/06/24 06:57:37;;;;;;;4.57;2.58;;;16.40;96.00;;;;;;5116400;28;20092;-79
2021/06/24 07:00:06;;;;;;;6.25;2.60;;;16.40;96.30;;;;;;5112379;28;20062;-79
2021/06/24 07:02:31;;;;;;;4.90;2.97;;;16.40;96.50;;;;;;5117405;28;20036;-79
2021/06/24 07:04:57;;;;;;;7.75;2.97;;;16.50;96.60;;;;;;5112571;28;20096;-80
2021/06/24 07:07:23;;;;;;;6.90;3.72;;;16.50;96.40;;;;;;5106980;28;20078;-79
2021/06/24 07:09:48;;;;;;;4.97;2.22;;;16.60;96.40;;;;;;5112558;27;20039;-80
2021/06/24 07:12:15;;;;;;;3.75;2.28;;;16.80;96.30;;;;;;5106976;28;20105;-79
2021/06/24 07:14:41;;;;;;;6.53;2.55;;;16.80;95.90;;;;;;5112484;28;20700;-79
2021/06/24 07:17:07;;;;;;;8.90;2.67;;;16.90;96.10;;;;;;5110791;28;20067;-79
2021/06/24 07:19:32;;;;;;;5.55;2.58;;;17.00;96.50;;;;;;5113732;28;20423;-79
2021/06/24 07:21:58;;;;;;;3.85;2.17;;;17.10;96.40;;;;;;5105629;28;20046;-79
2021/06/24 07:24:24;;;;;;;3.35;1.90;;;17.20;95.90;;;;;;5107253;28;20192;-79
2021/06/24 07:26:50;;;;;;;5.22;2.25;;;17.20;95.50;;;;;;5105016;28;20593;-79
2021/06/24 07:29:16;;;;;;;2.75;1.50;;;17.20;95.80;;;;;;5113512;28;20093;-80
2021/06/24 07:31:41;;;;;;;5.00;1.88;;;17.20;95.70;;;;;;5136157;28;20040;-79
2021/06/24 07:34:07;;;;;;;4.82;1.98;;;17.20;96.00;;;;;;5113142;28;20055;-79
2021/06/24 07:36:33;;;;;;;2.92;2.28;;;17.10;95.60;;;;;;5113206;28;20039;-80
2021/06/24 07:38:59;;;;;;;3.72;1.90;;;17.00;95.20;;;;;;5114309;28;20046;-79
2021/06/24 07:41:24;;;;;;;3.13;1.80;;;17.00;95.10;;;;;;5114195;28;20047;-79
2021/06/24 07:43:52;;;;;;;5.60;2.20;;;17.00;95.30;;;;;;5117351;28;20039;-80
2021/06/24 07:46:19;;;;;;;7.40;3.45;;;17.00;95.80;;;;;;5114396;28;20091;-79
2021/06/24 07:48:45;;;;;;;5.45;2.60;;;17.00;95.10;;;;;;5112840;28;20456;-79
2021/06/24 07:51:10;;;;;;;6.65;2.15;;;17.00;94.60;;;;;;5113665;28;20081;-80
2021/06/24 07:53:42;;;;;;;5.38;2.85;;;17.00;94.40;;;;;;5112717;28;20035;-80
2021/06/24 07:56:10;;;;;;;4.22;2.45;;;17.00;95.30;;;;;;5114994;28;20031;-80
2021/06/24 08:02:53;;;;;;;4.25;3.13;;;16.90;96.50;;;;;;5115769;28;20039;-83
2021/06/24 08:08:45;;;;;;;5.60;2.60;;;17.00;94.80;;;;;;5089321;28;20051;-83
2021/06/24 08:11:15;;;;;;;10.80;3.45;;;17.00;95.10;;;;;;5085030;28;20099;-82
2021/06/24 08:13:47;;;;;;;3.15;2.22;;;17.10;94.70;;;;;;5101478;28;20043;-82
2021/06/24 08:16:30;;;;;;;6.70;2.65;;;17.30;95.00;;;;;;5120292;28;20031;-83
2021/06/24 08:18:56;;;;;;;8.75;2.78;;;17.60;95.50;;;;;;5126568;27;20043;-83
2021/06/24 08:21:22;;;;;;;4.80;2.47;;;17.60;94.40;;;;;;5120563;28;20054;-83
2021/06/24 08:23:47;;;;;;;3.90;2.60;;;17.60;94.00;;;;;;5125771;27;20060;-83
2021/06/24 08:26:15;;;;;;;2.58;2.10;;;17.60;94.60;;;;;;5121973;28;20813;-83
2021/06/24 08:28:41;;;;;;;6.35;2.35;;;17.40;95.20;;;;;;5118771;28;20032;-82
2021/06/24 08:31:07;;;;;;;3.60;2.22;;;17.80;94.50;;;;;;5121235;28;20039;-83
2021/06/24 08:33:33;;;;;;;3.30;1.80;;;17.70;93.50;;;;;;5120819;28;20051;-82
2021/06/24 08:35:59;;;;;;;3.20;1.83;;;17.90;93.20;;;;;;5118961;28;20036;-82
2021/06/24 08:38:25;;;;;;;4.25;2.35;;;18.00;92.50;;;;;;5125030;27;20036;-82
2021/06/24 08:40:51;;;;;;;2.67;2.15;;;18.40;92.10;;;;;;5118561;28;20031;-82
2021/06/24 08:43:17;;;;;;;5.32;2.25;;;18.70;92.40;;;;;;5117608;28;20040;-82
2021/06/24 08:45:43;;;;;;;5.88;2.22;;;19.10;92.90;;;;;;5123374;28;20071;-83
2021/06/24 08:48:15;;;;;;;6.93;2.47;;;19.10;90.80;;;;;;5121030;28;20103;-82
2021/06/24 08:50:45;;;;;;;4.38;2.30;;;19.20;90.80;;;;;;5119704;28;20043;-82
2021/06/24 08:53:12;;;;;;;4.65;2.00;;;19.20;90.40;;;;;;5118766;28;20031;-82
2021/06/24 08:55:43;;;;;;;3.53;1.92;;;19.20;90.00;;;;;;5114278;28;20221;-82
2021/06/24 08:58:09;;;;;;;3.03;1.60;;;19.30;88.90;;;;;;5116611;28;20091;-82
2021/06/24 09:00:35;;;;;;;5.00;1.70;;;19.40;87.60;;;;;;5118811;27;20027;-82
2021/06/24 09:03:21;;;;;;;7.13;1.77;;;19.50;89.60;;;;;;5120311;28;20040;-82
2021/06/24 09:05:49;;;;;;;3.70;1.45;;;19.70;90.40;;;;;;5116168;28;20067;-83
2021/06/24 09:08:24;;;;;;;4.88;1.55;;;19.50;88.30;;;;;;5122885;27;20040;-82
2021/06/24 09:11:17;;;;;;;3.75;1.33;;;19.60;90.10;;;;;;5117893;28;20078;-83
2021/06/24 09:14:06;;;;;;;2.95;1.50;;;19.20;90.80;;;;;;5117352;28;21337;-82
2021/06/24 09:16:37;;;;;;;5.03;1.30;;;19.00;90.30;;;;;;5117289;28;20063;-82
2021/06/24 09:19:21;;;;;;;3.20;0.90;;;19.00;90.90;;;;;;5115995;28;20043;-82
2021/06/24 09:22:04;;;;;;;3.25;1.17;;;19.00;91.00;;;;;;5136911;27;20099;-82
2021/06/24 09:24:38;;;;;;;3.70;1.25;;;19.00;91.70;;;;;;5119552;28;20031;-82
2021/06/24 09:27:24;;;;;;;2.72;1.20;;;18.90;91.30;;;;;;5121669;28;20032;-82
2021/06/24 09:29:51;;;;;;;3.22;0.90;;;19.00;91.40;;;;;;5118278;28;20181;-83
2021/06/24 09:32:38;;;;;;;3.15;1.20;;;18.90;91.20;;;;;;5120187;28;20043;-82
2021/06/24 09:35:19;;;;;;;4.45;0.77;;;19.00;89.80;;;;;;5119108;28;20096;-82
2021/06/24 09:38:14;;;;;;;1.50;0.68;;;18.80;90.90;;;;;;5121685;28;20043;-82
2021/06/24 09:40:43;;;;;;;2.67;0.88;;;18.80;90.40;;;;;;5124561;28;20053;-82
2021/06/24 09:43:26;;;;;;;3.70;1.23;;;18.70;90.30;;;;;;5120838;27;20035;-82
2021/06/24 09:46:16;;;;;;;1.50;0.82;;;18.60;90.90;;;;;;5122551;28;20104;-82
2021/06/24 09:52:29;;;;;;;2.13;0.90;;;18.90;90.70;;;;;;5063765;28;20033;-82
2021/06/24 09:55:07;;;;;;;4.70;1.17;;;19.10;91.10;;;;;;5122078;28;20046;-82
2021/06/24 09:57:36;;;;;;;3.60;1.10;;;19.30;91.90;;;;;;5125078;28;20213;-82
2021/06/24 10:00:22;;;;;;;6.20;1.20;;;19.30;91.70;;;;;;5124819;28;20028;-82
2021/06/24 10:03:07;;;;;;;1.45;1.15;;;19.30;91.50;;;;;;5121739;28;20047;-82
2021/06/24 10:05:34;;;;;;;2.57;1.07;;;19.20;90.90;;;;;;5119022;28;20031;-82
2021/06/24 10:08:00;;;;;;;2.10;1.33;;;18.90;91.10;;;;;;5122117;28;20303;-82
2021/06/24 10:10:26;;;;;;;4.75;0.90;;;18.90;90.90;;;;;;5122977;28;20079;-82
2021/06/24 10:12:51;;;;;;;3.88;1.67;;;18.70;90.80;;;;;;5117875;28;20060;-82
2021/06/24 10:15:18;;;;;;;4.93;1.40;;;18.80;91.90;;;;;;5122833;27;20043;-82
2021/06/24 10:17:44;;;;;;;4.65;1.30;;;18.70;91.70;;;;;;5121486;28;20047;-82
2021/06/24 10:20:11;;;;;;;3.35;1.48;;;18.50;91.90;;;;;;5120427;28;20119;-82
2021/06/24 10:22:39;;;;;;;2.08;1.23;;;18.50;91.50;;;;;;5117320;28;20106;-82
2021/06/24 10:25:13;;;;;;;1.65;1.13;;;18.70;91.00;;;;;;5115883;28;20035;-82
2021/06/24 10:27:41;;;;;;;1.90;1.10;;;18.60;91.40;;;;;;5116335;28;20067;-81
2021/06/24 10:30:12;;;;;;;2.65;0.90;;;18.70;90.80;;;;;;5111004;27;20106;-83
2021/06/24 10:32:39;;;;;;;3.40;1.00;;;18.90;90.60;;;;;;5115363;28;20043;-81
2021/06/24 10:35:07;;;;;;;2.60;1.10;;;19.30;91.00;;;;;;5110258;27;20091;-83
2021/06/24 10:37:35;;;;;;;7.88;1.88;;;19.50;90.50;;;;;;5110994;27;20090;-83
2021/06/24 10:40:22;;;;;;;5.80;0.80;;;19.70;88.30;;;;;;5107147;27;20123;-82
2021/06/24 10:42:56;;;;;;;2.35;1.20;;;19.80;87.80;;;;;;5105217;28;20066;-83
2021/06/24 10:45:24;;;;;;;2.17;0.98;;;19.80;89.20;;;;;;5105669;28;20051;-83
2021/06/24 10:47:50;;;;;;;3.75;1.30;;;19.80;89.70;;;;;;5116959;28;20042;-82
2021/06/24 10:50:29;;;;;;;3.47;0.80;;;19.80;89.80;;;;;;5115745;28;20037;-83
2021/06/24 10:52:56;;;;;;;3.70;1.40;;;19.70;89.50;;;;;;5112981;28;20036;-83
2021/06/24 10:55:34;;;;;;;4.50;1.70;;;19.40;89.90;;;;;;5131268;27;20039;-81
2021/06/24 10:58:34;;;;;;;2.78;1.65;;;19.30;90.30;;;;;;5111495;28;20031;-81
2021/06/24 11:01:46;;;;;;;3.53;1.30;;;19.20;89.90;;;;;;5114520;28;20096;-82
2021/06/24 11:04:24;;;;;;;5.22;1.33;;;19.20;90.20;;;;;;5113516;28;20111;-83
2021/06/24 11:06:52;;;;;;;3.17;1.20;;;19.20;91.00;;;;;;5118286;28;20053;-83
2021/06/24 11:09:20;;;;;;;1.55;1.25;;;19.10;91.30;;;;;;5113021;28;20096;-82
2021/06/24 11:11:46;;;;;;;3.80;1.10;;;19.20;91.70;;;;;;5113812;28;20077;-82
2021/06/24 11:14:15;;;;;;;2.53;1.35;;;19.30;91.60;;;;;;5114314;28;20480;-82
2021/06/24 11:16:43;;;;;;;3.42;1.02;;;19.50;91.70;;;;;;5115138;28;20040;-81
2021/06/24 11:19:14;;;;;;;3.25;1.27;;;19.50;91.70;;;;;;5116107;28;20023;-82
2021/06/24 11:21:39;;;;;;;1.42;1.13;;;19.50;90.90;;;;;;5111569;28;20484;-81
2021/06/24 11:24:05;;;;;;;1.50;1.20;;;19.60;91.70;;;;;;5113563;28;20036;-81
2021/06/24 11:26:38;;;;;;;3.22;1.40;;;19.90;92.50;;;;;;5114961;28;20060;-81
2021/06/24 11:29:10;;;;;;;2.28;1.10;;;20.10;90.90;;;;;;5121527;28;20020;-81
2021/06/24 11:34:32;;;;;;;5.07;1.27;;;20.10;90.70;;;;;;5115410;28;20051;-81
2021/06/24 11:37:06;;;;;;;4.93;1.30;;;20.30;90.10;;;;;;5111349;28;20468;-81
2021/06/24 11:39:35;;;;;;;3.08;1.23;;;20.10;89.00;;;;;;5115663;28;20142;-81
2021/06/24 11:42:08;;;;;;;4.35;1.30;;;20.00;87.60;;;;;;5119834;28;20093;-81
2021/06/24 11:44:37;;;;;;;4.45;1.20;;;20.10;89.30;;;;;;5115587;27;20458;-81
2021/06/24 11:47:12;;;;;;;5.28;2.28;;;20.30;90.00;;;;;;5117431;28;20040;-81
2021/06/24 12:03:20;;;;;;;3.03;0.93;;;20.70;87.60;;;;;;5119283;28;20020;-81
2021/06/24 12:05:56;;;;;;;4.20;1.38;;;20.50;88.40;;;;;;5124557;28;20039;-82
2021/06/24 12:08:23;;;;;;;5.43;1.35;;;20.30;90.40;;;;;;5118236;28;20035;-82
2021/06/24 12:11:08;;;;;;;3.30;1.45;;;20.30;90.30;;;;;;5118673;28;20028;-82
2021/06/24 12:13:43;;;;;;;1.70;1.20;;;20.10;88.10;;;;;;5116166;28;20482;-81
2021/06/24 12:16:12;;;;;;;3.10;1.50;;;20.00;86.00;;;;;;5112843;28;20032;-81
2021/06/24 12:18:39;;;;;;;3.63;1.30;;;20.40;86.50;;;;;;5128989;27;20510;-81
2021/06/24 12:21:11;;;;;;;3.20;1.27;;;20.00;86.30;;;;;;5119078;28;20028;-82
2021/06/24 12:23:45;;;;;;;2.63;1.17;;;20.00;88.60;;;;;;5114688;28;20036;-82
2021/06/24 12:26:13;;;;;;;1.97;1.27;;;20.50;89.60;;;;;;5118299;28;20070;-82
2021/06/24 12:28:40;;;;;;;3.33;1.35;;;20.10;87.50;;;;;;5118179;28;20087;-81
2021/06/24 12:31:16;;;;;;;3.50;1.23;;;20.10;88.90;;;;;;5121323;28;20128;-82
2021/06/24 12:33:42;;;;;;;3.17;1.30;;;20.40;90.00;;;;;;5123036;28;20089;-82
2021/06/24 12:36:08;;;;;;;2.55;1.25;;;20.30;87.00;;;;;;5125356;28;20055;-82
2021/06/24 12:38:34;;;;;;;1.58;1.48;;;20.10;87.90;;;;;;5118388;28;21785;-81
2021/06/24 12:41:08;;;;;;;1.40;0.80;;;20.10;88.20;;;;;;5119558;28;20031;-81
2021/06/24 12:43:36;;;;;;;3.17;1.50;;;20.00;87.90;;;;;;5121961;28;20044;-81
2021/06/24 12:46:05;;;;;;;2.40;1.45;;;20.30;90.00;;;;;;5124556;28;20046;-82
2021/06/24 12:48:41;;;;;;;7.75;1.60;;;20.10;89.10;;;;;;5118981;28;20039;-81
2021/06/24 12:51:17;;;;;;;3.67;1.85;;;20.00;90.20;;;;;;5117284;28;20041;-81
2021/06/24 12:53:45;;;;;;;3.25;1.50;;;19.90;89.70;;;;;;5117674;28;20414;-82
2021/06/24 12:56:21;;;;;;;2.58;1.77;;;19.90;90.00;;;;;;5117882;28;20036;-82
2021/06/24 12:58:47;;;;;;;3.55;1.70;;;20.00;90.10;;;;;;5117315;28;20035;-81
2021/06/24 13:01:18;;;;;;;3.97;1.80;;;20.10;90.00;;;;;;5117605;28;20035;-81
2021/06/24 13:03:45;;;;;;;3.28;1.90;;;20.20;90.10;;;;;;5115570;28;20040;-82
2021/06/24 13:06:28;;;;;;;2.17;1.40;;;20.20;90.30;;;;;;5118387;28;20060;-82
2021/06/24 13:09:05;;;;;;;5.53;1.90;;;20.20;90.30;;;;;;5122506;28;20632;-81
2021/06/24 13:11:38;;;;;;;3.40;2.30;;;20.10;89.30;;;;;;5121636;28;20032;-81
2021/06/24 13:14:13;;;;;;;4.15;1.58;;;19.90;89.70;;;;;;5120494;28;20074;-81
2021/06/24 13:17:03;;;;;;;3.20;1.52;;;19.90;89.80;;;;;;5122986;28;20643;-82
2021/06/24 13:19:36;;;;;;;2.33;1.80;;;19.80;90.50;;;;;;5114606;27;20045;-82
2021/06/24 13:22:02;;;;;;;2.85;1.95;;;19.60;91.00;;;;;;5121793;28;20083;-81
2021/06/24 13:24:39;;;;;;;2.65;2.33;;;19.60;91.30;;;;;;5119290;28;20059;-82
2021/06/24 13:27:05;;;;;;;6.40;2.10;;;19.60;91.40;;;;;;5115925;28;20044;-81
2021/06/24 13:29:31;;;;;;;4.22;2.00;;;19.60;91.50;;;;;;5121693;27;20627;-81
2021/06/24 13:31:56;;;;;;;5.05;1.77;;;19.70;92.10;;;;;;5122382;28;20039;-81
2021/06/24 13:34:24;;;;;;;2.42;2.03;;;20.10;91.70;;;;;;5118733;28;20067;-81
2021/06/24 13:36:50;;;;;;;3.53;1.73;;;20.30;90.60;;;;;;5121383;28;20031;-82
2021/06/24 13:39:30;;;;;;;3.15;1.92;;;20.60;91.30;;;;;;5122381;28;20410;-82
2021/06/24 13:41:56;;;;;;;2.58;1.90;;;20.90;90.80;;;;;;5121025;28;20060;-81
2021/06/24 13:44:21;;;;;;;6.70;2.28;;;20.80;90.80;;;;;;5119992;28;20039;-81
2021/06/24 13:46:49;;;;;;;3.72;2.28;;;20.90;90.80;;;;;;5122893;28;20055;-81
2021/06/24 13:49:18;;;;;;;4.07;2.20;;;20.90;90.30;;;;;;5120936;28;20043;-81